Time,TemperatureF,DewpointF,PressureIn,WindDirection,WindDirectionDegrees,WindSpeedMPH,WindSpeedGustMPH,Humidity,HourlyPrecipIn,Conditions,Clouds,dailyrainin,SolarRadiationWatts/m^2,SoftwareType,DateUTC
2013-04-23 00:02:00,42.0,31.0,-100.00,ESE,102,2.0,5.0,64,0.00,,,0.02,0.000000,,2013-04-23 07:02:00,
2013-04-23 00:11:00,38.0,32.0,-100.00,ENE,70,0.0,5.0,78,0.00,,,0.02,0.000000,,2013-04-23 07:11:00,
2013-04-23 00:32:00,38.0,32.0,-100.00,ENE,70,0.0,5.0,78,0.00,,,0.02,0.000000,,2013-04-23 07:32:00,
2013-04-23 00:42:00,38.0,32.0,-100.00,ENE,70,0.0,5.0,78,0.00,,,0.02,0.000000,,2013-04-23 07:42:00,
2013-04-23 00:52:00,38.0,32.0,-100.00,ENE,70,0.0,5.0,78,0.00,,,0.02,0.000000,,2013-04-23 07:52:00,
2013-04-23 01:01:00,38.0,32.0,-100.00,ENE,70,0.0,5.0,78,0.00,,,0.02,0.000000,,2013-04-23 08:01:00,
2013-04-23 01:11:00,40.0,34.0,-100.00,East,81,0.0,6.0,80,0.00,,,0.01,0.000000,,2013-04-23 08:11:00,
2013-04-23 01:32:00,40.0,34.0,-100.00,East,81,0.0,6.0,80,0.00,,,0.01,0.000000,,2013-04-23 08:32:00,
2013-04-23 01:42:00,40.0,34.0,-100.00,East,81,0.0,6.0,80,0.00,,,0.01,0.000000,,2013-04-23 08:42:00,
2013-04-23 01:52:00,40.0,34.0,-100.00,East,81,0.0,6.0,80,0.00,,,0.01,0.000000,,2013-04-23 08:52:00,
2013-04-23 02:01:00,40.0,34.0,-100.00,East,81,0.0,6.0,80,0.00,,,0.01,0.000000,,2013-04-23 09:01:00,
2013-04-23 02:11:00,39.0,34.0,-100.00,East,83,0.0,7.0,81,0.00,,,0.01,0.000000,,2013-04-23 09:11:00,
2013-04-23 02:43:00,39.0,34.0,-100.00,East,83,0.0,7.0,81,0.00,,,0.01,0.000000,,2013-04-23 09:43:00,
2013-04-23 02:53:00,39.0,34.0,-100.00,East,83,0.0,7.0,81,0.00,,,0.01,0.000000,,2013-04-23 09:53:00,
2013-04-23 03:02:00,39.0,34.0,-100.00,East,83,0.0,7.0,81,0.00,,,0.01,0.000000,,2013-04-23 10:02:00,
2013-04-23 03:11:00,38.0,34.0,-100.00,East,82,1.0,7.0,84,0.00,,,0.01,0.000000,,2013-04-23 10:11:00,
2013-04-23 03:33:00,38.0,34.0,-100.00,East,82,1.0,7.0,84,0.00,,,0.01,0.000000,,2013-04-23 10:33:00,
2013-04-23 03:42:00,38.0,34.0,-100.00,East,82,1.0,7.0,84,0.00,,,0.01,0.000000,,2013-04-23 10:42:00,
2013-04-23 03:52:00,38.0,34.0,-100.00,East,82,1.0,7.0,84,0.00,,,0.01,0.000000,,2013-04-23 10:52:00,
2013-04-23 04:02:00,38.0,34.0,-100.00,East,82,1.0,7.0,84,0.00,,,0.01,0.000000,,2013-04-23 11:02:00,
2013-04-23 04:11:00,38.0,34.0,-100.00,East,80,0.0,9.0,84,0.00,,,0.01,0.000000,,2013-04-23 11:11:00,
2013-04-23 04:32:00,38.0,34.0,-100.00,East,80,0.0,9.0,84,0.00,,,0.01,0.000000,,2013-04-23 11:32:00,
2013-04-23 05:02:00,38.0,34.0,-100.00,East,80,0.0,9.0,84,0.00,,,0.01,0.000000,,2013-04-23 12:02:00,
2013-04-23 06:11:00,36.0,32.0,-100.00,ENE,76,2.0,8.0,84,-99.99,,,0.01,0.000000,,2013-04-23 13:11:00,
2013-04-23 06:42:00,36.0,32.0,-100.00,ENE,76,2.0,8.0,84,-99.99,,,0.01,0.000000,,2013-04-23 13:42:00,
2013-04-23 06:52:00,36.0,32.0,-100.00,ENE,76,2.0,8.0,84,-99.99,,,0.01,0.000000,,2013-04-23 13:52:00,
2013-04-23 07:01:00,36.0,32.0,-100.00,ENE,76,2.0,8.0,84,-99.99,,,0.01,0.000000,,2013-04-23 14:01:00,
2013-04-23 07:42:00,38.0,32.0,-100.00,East,88,1.0,9.0,79,0.00,,,0.00,22.000000,,2013-04-23 14:42:00,
2013-04-23 08:11:00,40.0,34.0,-100.00,East,97,4.0,10.0,79,-99.99,,,0.00,79.000000,,2013-04-23 15:11:00,
2013-04-23 08:43:00,40.0,34.0,-100.00,East,97,4.0,10.0,79,-99.99,,,0.00,79.000000,,2013-04-23 15:43:00,
2013-04-23 08:53:00,40.0,34.0,-100.00,East,97,4.0,10.0,79,-99.99,,,0.00,79.000000,,2013-04-23 15:53:00,
2013-04-23 09:02:00,40.0,34.0,-100.00,East,97,4.0,10.0,79,-99.99,,,0.00,79.000000,,2013-04-23 16:02:00,
2013-04-23 09:11:00,46.0,34.0,-100.00,East,99,2.0,10.0,62,0.00,,,0.00,300.000000,,2013-04-23 16:11:00,
2013-04-23 09:34:00,46.0,34.0,-100.00,East,99,2.0,10.0,62,0.00,,,0.00,300.000000,,2013-04-23 16:34:00,
2013-04-23 09:43:00,46.0,34.0,-100.00,East,99,2.0,10.0,62,0.00,,,0.00,300.000000,,2013-04-23 16:43:00,
2013-04-23 09:53:00,46.0,34.0,-100.00,East,99,2.0,10.0,62,0.00,,,0.00,300.000000,,2013-04-23 16:53:00,
2013-04-23 10:02:00,46.0,34.0,-100.00,East,99,2.0,10.0,62,0.00,,,0.00,300.000000,,2013-04-23 17:02:00,
2013-04-23 10:11:00,52.0,34.0,-100.00,SE,131,3.0,9.0,51,0.00,,,0.00,465.000000,,2013-04-23 17:11:00,
2013-04-23 10:33:00,52.0,34.0,-100.00,SE,131,3.0,9.0,51,0.00,,,0.00,465.000000,,2013-04-23 17:33:00,
2013-04-23 10:43:00,52.0,34.0,-100.00,SE,131,3.0,9.0,51,0.00,,,0.00,465.000000,,2013-04-23 17:43:00,
2013-04-23 10:53:00,52.0,34.0,-100.00,SE,131,3.0,9.0,51,0.00,,,0.00,465.000000,,2013-04-23 17:53:00,
2013-04-23 11:02:00,52.0,34.0,-100.00,SE,131,3.0,9.0,51,0.00,,,0.00,465.000000,,2013-04-23 18:02:00,
2013-04-23 11:11:00,57.0,35.0,-100.00,SSW,192,1.0,5.0,44,0.00,,,0.00,778.000000,,2013-04-23 18:11:00,
2013-04-23 11:32:00,57.0,35.0,-100.00,SSW,192,1.0,5.0,44,0.00,,,0.00,778.000000,,2013-04-23 18:32:00,
2013-04-23 11:42:00,57.0,35.0,-100.00,SSW,192,1.0,5.0,44,0.00,,,0.00,778.000000,,2013-04-23 18:42:00,
2013-04-23 11:52:00,57.0,35.0,-100.00,SSW,192,1.0,5.0,44,0.00,,,0.00,778.000000,,2013-04-23 18:52:00,
2013-04-23 12:02:00,57.0,35.0,-100.00,SSW,192,1.0,5.0,44,0.00,,,0.00,778.000000,,2013-04-23 19:02:00,
2013-04-23 12:11:00,57.0,31.0,-100.00,South,178,0.0,8.0,37,0.00,,,0.00,733.000000,,2013-04-23 19:11:00,
2013-04-23 12:32:00,57.0,31.0,-100.00,South,178,0.0,8.0,37,0.00,,,0.00,733.000000,,2013-04-23 19:32:00,
2013-04-23 12:42:00,57.0,31.0,-100.00,South,178,0.0,8.0,37,0.00,,,0.00,733.000000,,2013-04-23 19:42:00,
2013-04-23 12:52:00,57.0,31.0,-100.00,South,178,0.0,8.0,37,0.00,,,0.00,733.000000,,2013-04-23 19:52:00,
2013-04-23 13:01:00,57.0,31.0,-100.00,South,178,0.0,8.0,37,0.00,,,0.00,733.000000,,2013-04-23 20:01:00,
2013-04-23 13:32:00,64.0,26.0,-100.00,SSE,155,1.0,11.0,24,0.00,,,0.00,802.000000,,2013-04-23 20:32:00,
2013-04-23 14:11:00,60.0,25.0,-100.00,South,188,1.0,12.0,26,-99.99,,,0.00,815.000000,,2013-04-23 21:11:00,
2013-04-23 14:33:00,60.0,25.0,-100.00,South,188,1.0,12.0,26,-99.99,,,0.00,815.000000,,2013-04-23 21:33:00,
2013-04-23 14:43:00,60.0,25.0,-100.00,South,188,1.0,12.0,26,-99.99,,,0.00,815.000000,,2013-04-23 21:43:00,
2013-04-23 14:52:00,60.0,25.0,-100.00,South,188,1.0,12.0,26,-99.99,,,0.00,815.000000,,2013-04-23 21:52:00,
2013-04-23 15:02:00,60.0,25.0,-100.00,South,188,1.0,12.0,26,-99.99,,,0.00,815.000000,,2013-04-23 22:02:00,
2013-04-23 15:11:00,61.0,26.0,-100.00,SW,227,3.0,10.0,26,0.00,,,0.00,614.000000,,2013-04-23 22:11:00,
2013-04-23 15:42:00,61.0,26.0,-100.00,SW,227,3.0,10.0,26,0.00,,,0.00,614.000000,,2013-04-23 22:42:00,
2013-04-23 15:52:00,61.0,26.0,-100.00,SW,227,3.0,10.0,26,0.00,,,0.00,614.000000,,2013-04-23 22:52:00,
2013-04-23 16:02:00,61.0,26.0,-100.00,SW,227,3.0,10.0,26,0.00,,,0.00,614.000000,,2013-04-23 23:02:00,
2013-04-23 16:11:00,59.0,23.0,-100.00,South,188,2.0,17.0,25,0.00,,,0.00,535.000000,,2013-04-23 23:11:00,
2013-04-23 16:32:00,59.0,23.0,-100.00,South,188,2.0,17.0,25,0.00,,,0.00,535.000000,,2013-04-23 23:32:00,
2013-04-23 16:42:00,59.0,23.0,-100.00,South,188,2.0,17.0,25,0.00,,,0.00,535.000000,,2013-04-23 23:42:00,
2013-04-23 16:52:00,59.0,23.0,-100.00,South,188,2.0,17.0,25,0.00,,,0.00,535.000000,,2013-04-23 23:52:00,
2013-04-23 17:01:00,59.0,23.0,-100.00,South,188,2.0,17.0,25,0.00,,,0.00,535.000000,,2013-04-24 00:01:00,
2013-04-23 18:11:00,53.0,20.0,-100.00,WSW,241,4.0,13.0,27,-99.99,,,0.00,43.000000,,2013-04-24 01:11:00,
2013-04-23 18:43:00,53.0,20.0,-100.00,WSW,241,4.0,13.0,27,-99.99,,,0.00,43.000000,,2013-04-24 01:43:00,
2013-04-23 18:52:00,53.0,20.0,-100.00,WSW,241,4.0,13.0,27,-99.99,,,0.00,43.000000,,2013-04-24 01:52:00,
2013-04-23 19:02:00,53.0,20.0,-100.00,WSW,241,4.0,13.0,27,-99.99,,,0.00,43.000000,,2013-04-24 02:02:00,
2013-04-23 19:11:00,53.0,23.0,-100.00,SW,217,4.0,11.0,31,0.00,,,0.00,28.000000,,2013-04-24 02:11:00,
2013-04-23 19:42:00,53.0,23.0,-100.00,SW,217,4.0,11.0,31,0.00,,,0.00,28.000000,,2013-04-24 02:42:00,
2013-04-23 19:57:00,53.0,23.0,-100.00,SW,217,4.0,11.0,31,0.00,,,0.00,28.000000,,2013-04-24 02:57:00,
2013-04-23 20:04:00,53.0,23.0,-100.00,SW,217,4.0,11.0,31,0.00,,,0.00,28.000000,,2013-04-24 03:04:00,
2013-04-23 20:11:00,50.0,25.0,-100.00,SSE,164,3.0,12.0,38,0.00,,,0.00,14.000000,,2013-04-24 03:11:00,
2013-04-23 20:53:00,50.0,25.0,-100.00,SSE,164,3.0,12.0,38,0.00,,,0.00,14.000000,,2013-04-24 03:53:00,
2013-04-23 20:59:00,50.0,25.0,-100.00,SSE,164,3.0,12.0,38,0.00,,,0.00,14.000000,,2013-04-24 03:59:00,
2013-04-23 21:02:00,50.0,25.0,-100.00,SSE,164,3.0,12.0,38,0.00,,,0.00,14.000000,,2013-04-24 04:02:00,
2013-04-23 21:43:00,47.0,24.0,-100.00,WNW,292,2.0,9.0,40,0.00,,,-99.99,0.000000,,2013-04-24 04:43:00,
2013-04-23 21:53:00,47.0,24.0,-100.00,WNW,292,2.0,9.0,40,0.00,,,-99.99,0.000000,,2013-04-24 04:53:00,
2013-04-23 22:02:00,47.0,24.0,-100.00,WNW,292,2.0,9.0,40,0.00,,,-99.99,0.000000,,2013-04-24 05:02:00,
2013-04-23 22:11:00,45.0,27.0,-100.00,NE,47,0.0,4.0,49,0.00,,,0.00,0.000000,,2013-04-24 05:11:00,
2013-04-23 22:42:00,45.0,27.0,-100.00,NE,47,0.0,4.0,49,0.00,,,0.00,0.000000,,2013-04-24 05:42:00,
2013-04-23 22:52:00,45.0,27.0,-100.00,NE,47,0.0,4.0,49,0.00,,,0.00,0.000000,,2013-04-24 05:52:00,
2013-04-23 23:02:00,45.0,27.0,-100.00,NE,47,0.0,4.0,49,0.00,,,0.00,0.000000,,2013-04-24 06:02:00,
2013-04-23 23:11:00,43.0,32.0,-100.00,ENE,67,0.0,7.0,65,0.00,,,0.00,0.000000,,2013-04-24 06:11:00,
2013-04-23 23:33:00,43.0,32.0,-100.00,ENE,67,0.0,7.0,65,0.00,,,0.00,0.000000,,2013-04-24 06:33:00,
2013-04-23 23:42:00,43.0,32.0,-100.00,ENE,67,0.0,7.0,65,0.00,,,0.00,0.000000,,2013-04-24 06:42:00,
2013-04-23 23:52:00,43.0,32.0,-100.00,ENE,67,0.0,7.0,65,0.00,,,0.00,0.000000,,2013-04-24 06:52:00,